createdAt,value
2023-04-12T00:00:10.770Z,5.30
2023-04-12T00:03:33.759Z,6.60
2023-04-12T00:06:35.725Z,6.40
2023-04-12T00:09:37.474Z,6.50
2023-04-12T00:12:40.409Z,6.60
2023-04-12T00:15:42.121Z,6.30
2023-04-12T00:18:45.105Z,6.80
2023-04-12T00:21:46.817Z,6.50
2023-04-12T00:24:48.566Z,6.30
2023-04-12T00:27:50.714Z,6.80
2023-04-12T00:30:52.505Z,6.40
2023-04-12T00:33:54.557Z,5.90
2023-04-12T00:39:57.971Z,6.60
2023-04-12T00:43:00.004Z,6.00
2023-04-12T00:46:01.873Z,6.30
2023-04-12T00:49:03.823Z,5.70
2023-04-12T00:52:09.424Z,5.00
2023-04-12T00:55:12.177Z,4.20
2023-04-12T00:58:14.170Z,4.30
2023-04-12T01:01:16.682Z,5.40
2023-04-12T01:04:21.905Z,5.90
2023-04-12T01:07:50.858Z,5.70
2023-04-12T01:11:16.343Z,6.00
2023-04-12T01:14:30.445Z,6.10
2023-04-12T01:17:38.199Z,5.90
2023-04-12T01:21:13.264Z,6.60
2023-04-12T01:24:38.246Z,6.60
2023-04-12T01:27:47.780Z,6.90
2023-04-12T01:30:53.709Z,5.50
2023-04-12T01:33:58.818Z,5.20
2023-04-12T01:37:02.917Z,4.50
2023-04-12T01:40:07.284Z,5.10
2023-04-12T01:43:13.372Z,4.90
2023-04-12T01:46:17.967Z,5.40
2023-04-12T01:49:24.125Z,4.80
2023-04-12T01:52:31.370Z,5.50
2023-04-12T01:55:37.615Z,5.90
2023-04-12T01:58:42.280Z,6.90
2023-04-12T02:01:46.042Z,6.70
2023-04-12T02:04:47.882Z,7.10
2023-04-12T02:07:50.617Z,7.90
2023-04-12T02:10:54.255Z,7.40
2023-04-12T02:13:56.112Z,8.00
2023-04-12T02:16:59.153Z,7.50
2023-04-12T02:20:03.038Z,7.20
2023-04-12T02:23:06.125Z,7.40
2023-04-12T02:26:07.761Z,7.70
2023-04-12T02:29:09.877Z,7.80
2023-04-12T02:32:12.340Z,5.80
2023-04-12T02:38:18.927Z,4.80
2023-04-12T02:41:21.365Z,5.40
2023-04-12T02:44:23.241Z,6.10
2023-04-12T02:47:42.137Z,6.10
2023-04-12T02:50:44.626Z,7.10
2023-04-12T02:53:51.294Z,7.30
2023-04-12T02:56:56.190Z,7.20
2023-04-12T03:00:14.663Z,7.20
2023-04-12T03:03:19.245Z,7.20
2023-04-12T03:06:21.206Z,7.70
2023-04-12T03:09:23.278Z,7.80
2023-04-12T03:12:25.016Z,7.80
2023-04-12T03:15:47.273Z,7.70
2023-04-12T03:18:50.528Z,7.00
2023-04-12T03:21:53.651Z,7.30
2023-04-12T03:27:57.896Z,6.80
2023-04-12T03:31:04.791Z,6.00
2023-04-12T03:34:17.268Z,6.80
2023-04-12T03:37:21.783Z,7.60
2023-04-12T03:40:23.793Z,6.70
2023-04-12T03:43:35.364Z,7.20
2023-04-12T03:46:38.906Z,7.80
2023-04-12T03:49:43.662Z,7.90
2023-04-12T03:52:47.514Z,7.40
2023-04-12T03:55:49.221Z,6.10
2023-04-12T03:58:51.049Z,7.30
2023-04-12T04:01:55.026Z,8.50
2023-04-12T04:04:57.239Z,8.00
2023-04-12T04:08:01.726Z,8.60
2023-04-12T04:11:06.707Z,8.80
2023-04-12T04:14:13.297Z,7.90
2023-04-12T04:17:14.992Z,7.80
2023-04-12T04:20:18.241Z,7.20
2023-04-12T04:23:23.129Z,7.80
2023-04-12T04:26:32.986Z,8.20
2023-04-12T04:29:43.789Z,7.40
2023-04-12T04:32:45.679Z,6.40
2023-04-12T04:35:47.691Z,6.40
2023-04-12T04:39:01.688Z,6.60
2023-04-12T04:42:12.974Z,6.10
2023-04-12T04:45:17.851Z,5.80
2023-04-12T04:48:20.654Z,6.60
2023-04-12T04:51:22.339Z,6.10
2023-04-12T04:54:24.139Z,6.50
2023-04-12T04:57:26.197Z,5.80
2023-04-12T05:00:30.531Z,5.60
2023-04-12T05:03:33.563Z,5.20
2023-04-12T05:06:35.409Z,5.60
2023-04-12T05:09:37.384Z,5.40
2023-04-12T05:12:39.326Z,5.80
2023-04-12T05:15:41.058Z,6.30
2023-04-12T05:18:42.792Z,7.30
2023-04-12T05:21:44.460Z,8.20
2023-04-12T05:24:47.150Z,9.30
2023-04-12T05:27:51.406Z,9.60
2023-04-12T05:30:54.170Z,9.60
2023-04-12T05:33:58.253Z,9.00
2023-04-12T05:37:04.214Z,7.70
2023-04-12T05:40:09.257Z,6.30
2023-04-12T05:43:14.320Z,6.50
2023-04-12T05:46:16.126Z,6.10
2023-04-12T05:49:19.019Z,7.90
2023-04-12T05:52:20.945Z,8.00
2023-04-12T05:55:25.284Z,8.40
2023-04-12T05:58:27.022Z,7.00
2023-04-12T06:04:49.275Z,7.50
2023-04-12T06:07:53.207Z,7.70
2023-04-12T06:10:55.152Z,6.30
2023-04-12T06:17:06.586Z,5.50
2023-04-12T06:20:09.071Z,5.30
2023-04-12T06:23:12.220Z,5.50
2023-04-12T06:26:18.673Z,6.10
2023-04-12T06:29:20.827Z,7.00
2023-04-12T06:32:22.788Z,6.80
2023-04-12T06:35:24.651Z,7.20
2023-04-12T06:38:26.551Z,6.20
2023-04-12T06:41:28.373Z,7.70
2023-04-12T06:44:36.079Z,6.20
2023-04-12T06:47:37.883Z,5.60
2023-04-12T06:50:39.795Z,6.10
2023-04-12T06:53:41.487Z,6.10
2023-04-12T06:56:43.213Z,5.30
2023-04-12T06:59:44.906Z,4.80
2023-04-12T07:02:46.871Z,4.70
2023-04-12T07:05:48.757Z,5.10
2023-04-12T07:08:50.486Z,4.70
2023-04-12T07:11:52.345Z,4.00
2023-04-12T07:14:54.121Z,4.80
2023-04-12T07:17:56.292Z,4.70
2023-04-12T07:20:58.369Z,3.90
2023-04-12T07:24:01.200Z,4.20
2023-04-12T07:27:03.578Z,4.10
2023-04-12T07:30:10.149Z,4.00
2023-04-12T07:33:19.599Z,3.70
2023-04-12T07:36:21.890Z,3.90
2023-04-12T07:39:23.758Z,3.50
2023-04-12T07:42:26.393Z,3.70
2023-04-12T07:45:28.663Z,3.80
2023-04-12T07:51:33.015Z,3.10
2023-04-12T07:57:37.333Z,3.10
2023-04-12T08:00:39.263Z,3.50
2023-04-12T08:03:41.342Z,4.30
2023-04-12T08:06:43.182Z,3.60
2023-04-12T08:09:46.219Z,2.80
2023-04-12T08:12:48.079Z,3.90
2023-04-12T08:15:49.962Z,3.80
2023-04-12T08:18:52.027Z,3.70
2023-04-12T08:21:53.749Z,4.00
2023-04-12T08:24:55.556Z,3.70
2023-04-12T08:27:58.599Z,4.70
2023-04-12T08:31:00.935Z,2.90
2023-04-12T08:34:02.742Z,3.10
2023-04-12T08:37:05.166Z,3.00
2023-04-12T08:40:07.693Z,3.30
2023-04-12T08:43:11.347Z,3.60
2023-04-12T08:46:16.822Z,2.90
2023-04-12T08:49:19.809Z,3.10
2023-04-12T08:52:21.798Z,3.00
2023-04-12T08:55:28.699Z,3.10
2023-04-12T08:58:33.267Z,3.80
2023-04-12T09:01:36.550Z,3.60
2023-04-12T09:04:51.828Z,2.70
2023-04-12T09:07:56.919Z,3.00
2023-04-12T09:10:59.712Z,2.20
2023-04-12T09:14:02.027Z,2.90
2023-04-12T09:17:04.704Z,2.00
2023-04-12T09:20:15.252Z,2.60
2023-04-12T09:23:21.919Z,2.30
2023-04-12T09:26:30.966Z,1.90
2023-04-12T09:29:36.089Z,1.70
2023-04-12T09:32:37.917Z,1.90
2023-04-12T09:35:40.307Z,1.80
2023-04-12T09:38:59.015Z,1.60
2023-04-12T09:42:18.141Z,1.70
2023-04-12T09:45:34.330Z,2.20
2023-04-12T09:48:38.272Z,2.30
2023-04-12T09:51:40.145Z,2.10
2023-04-12T09:54:44.601Z,2.10
2023-04-12T09:57:48.151Z,2.00
2023-04-12T10:00:50.502Z,1.90
2023-04-12T10:03:53.852Z,1.70
2023-04-12T10:06:59.337Z,1.60
2023-04-12T10:10:03.535Z,1.80
2023-04-12T10:13:06.497Z,2.50
2023-04-12T10:16:09.274Z,2.50
2023-04-12T10:19:12.495Z,3.00
2023-04-12T10:22:16.966Z,2.20
2023-04-12T10:25:21.781Z,2.00
2023-04-12T10:28:24.038Z,2.10
2023-04-12T10:31:30.069Z,1.70
2023-04-12T10:34:33.312Z,1.70
2023-04-12T10:37:56.444Z,2.20
2023-04-12T10:41:13.237Z,1.90
2023-04-12T10:44:28.587Z,1.70
2023-04-12T10:47:49.574Z,1.60
2023-04-12T10:51:24.742Z,1.60
2023-04-12T10:54:26.851Z,1.50
2023-04-12T10:57:43.442Z,1.70
2023-04-12T11:01:05.828Z,1.90
2023-04-12T11:07:42.139Z,1.50
2023-04-12T11:11:05.074Z,1.80
2023-04-12T11:14:12.141Z,1.60
2023-04-12T11:17:17.172Z,1.50
2023-04-12T11:20:19.864Z,1.60
2023-04-12T11:23:23.201Z,1.90
2023-04-12T11:26:29.222Z,1.70
2023-04-12T11:29:32.058Z,1.60
2023-04-12T11:32:34.819Z,1.40
2023-04-12T11:35:36.788Z,1.40
2023-04-12T11:38:39.235Z,1.20
2023-04-12T11:41:45.285Z,1.00
2023-04-12T11:44:57.099Z,1.20
2023-04-12T11:47:59.880Z,1.00
2023-04-12T11:51:18.342Z,1.00
2023-04-12T11:54:20.284Z,1.10
2023-04-12T11:57:22.132Z,0.90
2023-04-12T12:00:25.010Z,1.30
2023-04-12T12:03:27.666Z,1.40
2023-04-12T12:06:31.194Z,1.30
2023-04-12T12:09:34.129Z,1.60
2023-04-12T12:12:35.905Z,1.50
2023-04-12T12:15:38.048Z,1.50
2023-04-12T12:21:45.567Z,1.70
2023-04-12T12:24:51.524Z,1.90
2023-04-12T12:27:57.054Z,2.10
2023-04-12T12:30:59.121Z,2.10
2023-04-12T12:34:02.292Z,1.90
2023-04-12T12:37:12.527Z,1.60
2023-04-12T12:40:14.922Z,1.90
2023-04-12T12:43:19.510Z,1.90
2023-04-12T12:46:21.372Z,1.70
2023-04-12T12:49:23.367Z,1.60
2023-04-12T12:52:25.583Z,2.00
2023-04-12T12:58:31.310Z,1.90
2023-04-12T13:01:33.145Z,1.60
2023-04-12T13:04:35.212Z,1.60
2023-04-12T13:07:37.501Z,1.60
2023-04-12T13:10:39.299Z,1.70
2023-04-12T13:13:41.072Z,1.70
2023-04-12T13:16:45.450Z,2.80
2023-04-12T13:19:47.781Z,1.80
2023-04-12T13:22:53.507Z,1.60
2023-04-12T13:25:55.378Z,1.70
2023-04-12T13:28:57.617Z,1.80
2023-04-12T13:32:00.022Z,1.50
2023-04-12T13:38:04.371Z,1.70
2023-04-12T13:41:06.467Z,1.80
2023-04-12T13:44:08.544Z,2.00
2023-04-12T13:47:10.681Z,1.70
2023-04-12T13:50:12.550Z,1.50
2023-04-12T13:53:14.498Z,1.60
2023-04-12T13:56:16.521Z,1.90
2023-04-12T13:59:18.474Z,1.70
2023-04-12T14:02:20.382Z,2.00
2023-04-12T14:08:24.321Z,1.70
2023-04-12T14:11:26.151Z,1.60
2023-04-12T14:14:31.540Z,1.70
2023-04-12T14:17:33.477Z,1.70
2023-04-12T14:20:35.513Z,1.80
2023-04-12T14:23:37.342Z,1.60
2023-04-12T14:26:39.410Z,1.80
2023-04-12T14:29:41.523Z,1.70
2023-04-12T14:32:45.177Z,2.10
2023-04-12T14:35:48.359Z,2.10
2023-04-12T14:38:50.360Z,2.00
2023-04-12T14:41:52.064Z,1.70
2023-04-12T14:44:53.866Z,2.00
2023-04-12T14:47:55.881Z,2.20
2023-04-12T14:50:57.660Z,2.40
2023-04-12T14:53:59.640Z,2.30
2023-04-12T14:57:01.659Z,1.80
2023-04-12T15:00:06.199Z,2.30
2023-04-12T15:03:08.103Z,2.40
2023-04-12T15:06:10.588Z,1.90
2023-04-12T15:12:16.572Z,1.90
2023-04-12T15:15:19.524Z,2.10
2023-04-12T15:18:21.360Z,2.20
2023-04-12T15:21:23.095Z,2.30
2023-04-12T15:24:24.990Z,2.60
2023-04-12T15:27:27.568Z,2.80
2023-04-12T15:30:30.070Z,2.60
2023-04-12T15:33:34.068Z,2.60
2023-04-12T15:36:37.082Z,2.50
2023-04-12T15:39:39.660Z,2.50
2023-04-12T15:42:43.093Z,2.70
2023-04-12T15:45:45.365Z,3.30
2023-04-12T15:48:47.543Z,3.30
2023-04-12T15:51:49.944Z,3.10
2023-04-12T15:54:51.657Z,3.40
2023-04-12T15:57:53.648Z,2.90
2023-04-12T16:00:55.464Z,5.50
2023-04-12T16:03:57.644Z,4.00
2023-04-12T16:10:05.652Z,4.10
2023-04-12T16:13:08.821Z,5.10
2023-04-12T16:16:17.185Z,4.10
2023-04-12T16:19:18.983Z,5.40
2023-04-12T16:22:21.069Z,5.60
2023-04-12T16:25:24.809Z,4.20
2023-04-12T16:28:27.740Z,4.40
2023-04-12T16:31:31.183Z,4.60
2023-04-12T16:34:33.039Z,3.80
2023-04-12T16:37:37.051Z,3.50
2023-04-12T16:40:39.493Z,3.80
2023-04-12T16:43:43.410Z,3.60
2023-04-12T16:46:48.484Z,3.80
2023-04-12T16:49:50.734Z,4.00
2023-04-12T16:56:01.294Z,4.00
2023-04-12T16:59:05.243Z,3.50
2023-04-12T17:02:07.441Z,3.80
2023-04-12T17:05:09.598Z,3.80
2023-04-12T17:08:11.735Z,3.40
2023-04-12T17:11:14.449Z,3.20
2023-04-12T17:14:16.703Z,3.00
2023-04-12T17:17:18.829Z,3.70
2023-04-12T17:20:22.071Z,3.60
2023-04-12T17:23:24.035Z,3.00
2023-04-12T17:26:26.699Z,3.30
2023-04-12T17:29:29.579Z,3.50
2023-04-12T17:32:39.531Z,3.60
2023-04-12T17:35:56.243Z,3.20
2023-04-12T17:39:03.931Z,3.50
2023-04-12T17:42:06.763Z,2.80
2023-04-12T17:45:11.901Z,3.80
2023-04-12T17:48:14.676Z,2.80
2023-04-12T17:51:16.775Z,2.80
2023-04-12T17:54:19.315Z,3.80
2023-04-12T17:57:21.884Z,3.20
2023-04-12T18:00:23.813Z,3.80
2023-04-12T18:03:26.846Z,4.40
2023-04-12T18:06:28.830Z,4.80
2023-04-12T18:09:30.991Z,4.80
2023-04-12T18:12:32.964Z,5.10
2023-04-12T18:15:35.166Z,4.70
2023-04-12T18:21:39.092Z,6.60
2023-04-12T18:24:41.111Z,8.90
2023-04-12T18:27:49.078Z,8.00
2023-04-12T18:30:51.303Z,10.10
2023-04-12T18:33:53.108Z,12.10
2023-04-12T18:36:54.872Z,12.00
2023-04-12T18:39:56.748Z,14.90
2023-04-12T18:42:58.965Z,17.40
2023-04-12T18:46:00.962Z,17.40
2023-04-12T18:49:05.795Z,19.50
2023-04-12T18:52:07.708Z,20.10
2023-04-12T18:55:09.823Z,22.20
2023-04-12T18:58:11.605Z,22.60
2023-04-12T19:01:13.965Z,23.60
2023-04-12T19:07:18.158Z,28.60
2023-04-12T19:10:20.167Z,30.80
2023-04-12T19:13:22.005Z,30.90
2023-04-12T19:16:24.015Z,32.00
2023-04-12T19:19:25.963Z,33.70
2023-04-12T19:22:28.304Z,32.40
2023-04-12T19:25:32.547Z,31.80
2023-04-12T19:28:34.352Z,30.90
2023-04-12T19:31:36.179Z,26.50
2023-04-12T19:34:38.823Z,25.00
2023-04-12T19:37:41.043Z,23.40
2023-04-12T19:40:42.814Z,23.40
2023-04-12T19:43:46.347Z,22.20
2023-04-12T19:46:48.463Z,20.90
2023-04-12T19:49:50.187Z,19.80
2023-04-12T19:52:52.018Z,21.40
2023-04-12T19:55:57.168Z,20.70
2023-04-12T19:58:59.276Z,23.80
2023-04-12T20:05:03.834Z,22.40
2023-04-12T20:08:05.745Z,23.00
2023-04-12T20:11:07.832Z,24.40
2023-04-12T20:14:09.607Z,24.20
2023-04-12T20:17:11.368Z,25.30
2023-04-12T20:20:16.613Z,25.30
2023-04-12T20:23:18.470Z,25.60
2023-04-12T20:26:20.643Z,27.10
2023-04-12T20:29:22.403Z,29.20
2023-04-12T20:32:24.617Z,29.40
2023-04-12T20:35:27.327Z,28.90
2023-04-12T20:38:30.105Z,28.30
2023-04-12T20:41:35.278Z,27.70
2023-04-12T20:44:37.218Z,26.40
2023-04-12T20:47:39.045Z,25.50
2023-04-12T20:50:40.750Z,27.50
2023-04-12T20:53:48.316Z,27.70
2023-04-12T20:56:50.221Z,26.90
2023-04-12T20:59:52.037Z,25.40
2023-04-12T21:02:54.204Z,24.50
2023-04-12T21:05:55.996Z,23.60
2023-04-12T21:08:58.258Z,23.50
2023-04-12T21:12:04.413Z,22.50
2023-04-12T21:15:07.549Z,23.30
2023-04-12T21:18:09.307Z,21.80
2023-04-12T21:21:12.206Z,22.70
2023-04-12T21:24:13.925Z,20.90
2023-04-12T21:27:15.640Z,21.20
2023-04-12T21:30:17.342Z,21.30
2023-04-12T21:33:23.928Z,20.50
2023-04-12T21:36:29.623Z,20.00
2023-04-12T21:39:32.304Z,19.40
2023-04-12T21:42:38.094Z,18.10
2023-04-12T21:45:39.955Z,19.80
2023-04-12T21:48:42.281Z,19.20
2023-04-12T21:54:55.086Z,15.20
2023-04-12T22:00:58.441Z,16.70
2023-04-12T22:04:00.309Z,15.90
2023-04-12T22:07:03.440Z,16.10
2023-04-12T22:10:05.407Z,16.10
2023-04-12T22:13:09.532Z,16.40
2023-04-12T22:16:15.563Z,16.00
2023-04-12T22:19:18.362Z,15.80
2023-04-12T22:22:20.226Z,17.30
2023-04-12T22:25:22.648Z,16.70
2023-04-12T22:28:24.442Z,17.00
2023-04-12T22:31:26.880Z,12.50
2023-04-12T22:34:28.693Z,16.10
2023-04-12T22:37:32.401Z,17.40
2023-04-12T22:40:34.117Z,16.70
2023-04-12T22:43:42.232Z,16.30
2023-04-12T22:46:47.631Z,16.10
2023-04-12T22:49:49.831Z,15.90
2023-04-12T22:52:53.793Z,16.20
2023-04-12T22:55:56.516Z,15.50
2023-04-12T22:58:58.231Z,15.90
2023-04-12T23:02:00.044Z,15.50
2023-04-12T23:05:02.164Z,15.70
2023-04-12T23:08:04.285Z,15.70
2023-04-12T23:11:06.723Z,14.50
2023-04-12T23:14:09.082Z,16.60
2023-04-12T23:20:13.737Z,14.50
2023-04-12T23:23:15.383Z,14.80
2023-04-12T23:26:17.633Z,15.20
2023-04-12T23:29:20.912Z,15.50
2023-04-12T23:32:22.761Z,15.40
2023-04-12T23:35:24.475Z,15.30
2023-04-12T23:38:31.267Z,14.70
2023-04-12T23:41:33.170Z,15.30
2023-04-12T23:44:35.354Z,15.70
2023-04-12T23:50:38.912Z,13.90
2023-04-12T23:53:40.851Z,13.40
2023-04-12T23:56:42.656Z,17.10
2023-04-12T23:59:44.357Z,16.30
